Isabela, Philippines
Current Conditions -  °F | °C
As of 11:00 AM on Saturday 25 Oct 2014 (Local Time) from RPMZ Reporting Station
Broken Clouds Broken Clouds  
Wind Chill: 90°   Ceiling: 30000
Heat Index: 105°   Visibility: 6mi
Dew Point: 79°   Wind: 7mph
Humidity: 70%   Direction: 60°ENE
Pressure: 29.91"   Gusts: NA
Location:  6.7°N, 121.97°E
Report Text: RPMZ 250300Z 06006KT 9999 SCT017CB BKN300 32/26 Q1013 RMK A2991 CB N- NE/ E AND OVHD
Loading
Personal Weather Stations






























Interactive Weather Map
Tropical Storm Tracking
New forecast layout! Learn more

10-Day Weather Forecast

Advertisements
Track Severe Weather on mobile